Time;durP1;ratioP1;P1;durP2;ratioP2;P2;SDS_P1;SDS_P2;PMS_P1;PMS_P2;Temp;Humidity;BMP_temperature;BMP_pressure;BME280_temperature;BME280_humidity;BME280_pressure;Samples;Min_cycle;Max_cycle;Signal;HPM_P1;HPM_P2
2023/06/11 00:01:21;;;;;;;8.70;5.75;;;;;;;20.00;100.00;99862.88;5131961;27;20023;-81
2023/06/11 00:03:52;;;;;;;6.82;5.65;;;;;;;19.96;100.00;99853.47;5130819;27;20079;-68
2023/06/11 00:06:20;;;;;;;11.07;6.47;;;;;;;19.87;100.00;99843.81;5127934;27;20035;-69
2023/06/11 00:08:46;;;;;;;8.23;6.25;;;;;;;19.90;100.00;99857.00;5128816;27;20046;-69
2023/06/11 00:11:11;;;;;;;8.38;5.95;;;;;;;19.92;100.00;99851.34;5129737;27;20095;-69
2023/06/11 00:13:37;;;;;;;8.25;6.38;;;;;;;19.92;100.00;99865.81;5129643;27;20110;-69
2023/06/11 00:16:02;;;;;;;10.73;6.55;;;;;;;19.87;100.00;99860.13;5124934;27;20649;-68
2023/06/11 00:18:28;;;;;;;9.68;6.03;;;;;;;19.85;100.00;99856.81;5128078;27;20030;-69
2023/06/11 00:20:58;;;;;;;8.57;6.30;;;;;;;19.87;100.00;99871.03;5129886;27;20405;-69
2023/06/11 00:23:24;;;;;;;11.68;6.40;;;;;;;19.86;100.00;99872.06;5130111;27;20031;-69
2023/06/11 00:25:50;;;;;;;9.95;6.97;;;;;;;19.81;100.00;99865.56;5127912;27;20676;-68
2023/06/11 00:28:15;;;;;;;11.85;6.80;;;;;;;19.73;100.00;99857.56;5129585;27;20019;-69
2023/06/11 00:30:40;;;;;;;11.35;6.68;;;;;;;19.72;100.00;99861.34;5129529;27;20042;-69
2023/06/11 00:33:06;;;;;;;8.57;6.68;;;;;;;19.76;100.00;99868.06;5128367;27;20031;-68
2023/06/11 00:35:31;;;;;;;8.13;6.72;;;;;;;19.78;100.00;99883.16;5129478;27;20126;-68
2023/06/11 00:37:57;;;;;;;9.00;6.55;;;;;;;19.76;100.00;99874.34;5128778;27;20039;-68
2023/06/11 00:40:23;;;;;;;7.93;7.13;;;;;;;19.73;100.00;99885.63;5129086;27;20026;-70
2023/06/11 00:42:50;;;;;;;8.07;7.28;;;;;;;19.72;100.00;99880.41;5129539;27;20046;-68
2023/06/11 00:45:16;;;;;;;10.90;7.53;;;;;;;19.70;100.00;99871.63;5128934;27;20030;-69
2023/06/11 00:47:42;;;;;;;13.27;8.65;;;;;;;19.73;100.00;99877.47;5127638;27;20626;-69
2023/06/11 00:50:08;;;;;;;10.82;8.70;;;;;;;19.71;100.00;99884.19;5128111;27;20125;-69
2023/06/11 00:52:34;;;;;;;11.98;9.10;;;;;;;19.60;100.00;99863.81;5128550;27;20035;-69
2023/06/11 00:54:59;;;;;;;10.38;9.18;;;;;;;19.60;100.00;99862.97;5128901;27;20023;-70
2023/06/11 00:57:25;;;;;;;17.40;9.43;;;;;;;19.71;100.00;99886.91;5128368;27;20566;-69
2023/06/11 00:59:55;;;;;;;11.88;9.18;;;;;;;19.63;100.00;99873.44;5127533;27;20026;-69
2023/06/11 01:02:36;;;;;;;12.95;9.65;;;;;;;19.68;100.00;99885.44;5126252;27;20025;-70
2023/06/11 01:05:04;;;;;;;14.00;9.25;;;;;;;19.57;100.00;99864.22;5125736;27;20029;-70
2023/06/11 01:07:35;;;;;;;14.07;10.18;;;;;;;19.62;100.00;99880.81;5127882;27;20050;-69
2023/06/11 01:10:02;;;;;;;12.45;10.13;;;;;;;19.59;100.00;99877.63;5125563;27;20111;-70
2023/06/11 01:12:28;;;;;;;13.85;10.05;;;;;;;19.44;100.00;99866.88;5127994;27;20099;-68
2023/06/11 01:14:53;;;;;;;11.88;10.40;;;;;;;19.53;100.00;99882.00;5126958;27;20023;-69
2023/06/11 01:17:34;;;;;;;18.15;11.48;;;;;;;19.51;100.00;99883.25;5128656;27;20022;-69
2023/06/11 01:20:12;;;;;;;15.57;11.02;;;;;;;19.45;100.00;99882.16;5126541;27;20027;-69
2023/06/11 01:23:13;;;;;;;15.43;10.77;;;;;;;19.47;100.00;99887.41;5125852;27;20431;-68
2023/06/11 01:25:50;;;;;;;15.00;11.32;;;;;;;19.42;100.00;99893.47;5124991;27;20049;-69
2023/06/11 01:28:21;;;;;;;14.77;11.00;;;;;;;19.27;100.00;99860.13;5125120;28;20027;-69
2023/06/11 01:30:49;;;;;;;16.95;11.57;;;;;;;19.34;100.00;99882.75;5125272;28;20038;-69
2023/06/11 01:33:18;;;;;;;18.75;11.52;;;;;;;19.33;100.00;99881.06;5128220;27;20053;-70
2023/06/11 01:35:44;;;;;;;14.00;12.02;;;;;;;19.39;100.00;99893.88;5127407;27;20455;-69
2023/06/11 01:38:10;;;;;;;16.98;11.93;;;;;;;19.35;100.00;99891.75;5128394;27;20027;-68
2023/06/11 01:40:36;;;;;;;17.38;12.20;;;;;;;19.32;100.00;99884.00;5128641;27;20367;-68
2023/06/11 01:43:02;;;;;;;17.15;12.25;;;;;;;19.21;100.00;99865.47;5128626;28;20031;-68
2023/06/11 01:45:32;;;;;;;17.90;11.98;;;;;;;19.31;100.00;99894.03;5126481;27;20023;-68
2023/06/11 01:47:58;;;;;;;15.25;11.45;;;;;;;19.30;100.00;99897.78;5124770;27;20019;-70
2023/06/11 01:50:23;;;;;;;16.80;12.52;;;;;;;19.19;100.00;99883.88;5129224;27;20015;-69
2023/06/11 01:52:49;;;;;;;13.70;11.45;;;;;;;19.22;100.00;99892.47;5127049;28;20479;-69
2023/06/11 01:55:15;;;;;;;16.88;11.98;;;;;;;19.30;100.00;99905.94;5127192;27;20019;-69
2023/06/11 01:57:41;;;;;;;14.95;12.23;;;;;;;19.22;100.00;99892.47;5128514;27;20031;-68
2023/06/11 02:00:10;;;;;;;14.88;11.98;;;;;;;19.20;100.00;99891.00;5128643;27;20027;-67
2023/06/11 02:02:36;;;;;;;19.77;12.13;;;;;;;19.27;100.00;99905.50;5127757;27;20026;-68
2023/06/11 02:05:02;;;;;;;14.55;11.45;;;;;;;19.21;100.00;99906.25;5128132;27;20083;-69
2023/06/11 02:07:27;;;;;;;14.73;11.18;;;;;;;19.22;100.00;99908.78;5128599;27;20039;-69
2023/06/11 02:09:53;;;;;;;15.25;11.98;;;;;;;19.16;100.00;99892.44;5128536;27;20471;-68
2023/06/11 02:12:19;;;;;;;19.10;10.93;;;;;;;19.11;100.00;99892.19;5126227;27;20035;-69
2023/06/11 02:14:44;;;;;;;14.65;11.73;;;;;;;19.15;100.00;99899.75;5128113;27;20566;-69
2023/06/11 02:17:10;;;;;;;15.95;10.95;;;;;;;19.17;100.00;99905.84;5134191;27;20023;-68
2023/06/11 02:19:35;;;;;;;13.35;10.85;;;;;;;19.14;100.00;99906.25;5130879;27;20019;-68
2023/06/11 02:22:01;;;;;;;13.30;11.65;;;;;;;19.11;100.00;99895.75;5132171;27;20458;-69
2023/06/11 02:24:27;;;;;;;17.90;12.00;;;;;;;18.96;100.00;99881.44;5131899;27;20027;-68
2023/06/11 02:26:52;;;;;;;13.73;10.70;;;;;;;19.12;100.00;99907.47;5129816;27;20038;-68
2023/06/11 02:29:18;;;;;;;12.10;10.77;;;;;;;19.02;100.00;99896.94;5131572;27;20482;-70
2023/06/11 02:31:43;;;;;;;19.88;11.15;;;;;;;19.09;100.00;99910.59;5128768;27;20031;-69
2023/06/11 02:34:09;;;;;;;15.38;11.32;;;;;;;19.00;100.00;99893.59;5129585;27;20015;-69
2023/06/11 02:36:35;;;;;;;15.65;11.82;;;;;;;19.07;100.00;99904.50;5130094;27;20081;-69
2023/06/11 02:39:00;;;;;;;12.05;10.75;;;;;;;18.91;100.00;99883.91;5131141;27;20039;-69
2023/06/11 02:41:26;;;;;;;14.88;10.77;;;;;;;19.06;100.00;99906.38;5133147;27;20031;-68
2023/06/11 02:43:52;;;;;;;17.95;11.45;;;;;;;18.96;100.00;99889.59;5131920;27;20031;-69
2023/06/11 02:46:17;;;;;;;12.98;11.02;;;;;;;18.97;100.00;99899.44;5131899;27;20111;-68
2023/06/11 02:48:43;;;;;;;15.98;10.75;;;;;;;18.91;100.00;99886.63;5131803;27;20031;-68
2023/06/11 02:51:08;;;;;;;13.50;10.68;;;;;;;18.89;100.00;99885.97;5132231;27;20026;-70
2023/06/11 02:53:34;;;;;;;13.52;10.88;;;;;;;18.89;100.00;99888.69;5132249;27;20022;-70
2023/06/11 02:55:59;;;;;;;14.20;11.30;;;;;;;18.94;100.00;99901.69;5131918;27;20023;-69
2023/06/11 02:58:25;;;;;;;16.70;11.48;;;;;;;18.86;100.00;99885.56;5132281;27;20055;-81
2023/06/11 03:00:50;;;;;;;16.75;11.27;;;;;;;18.95;100.00;99904.22;5133227;27;20035;-80
2023/06/11 03:03:15;;;;;;;13.57;10.35;;;;;;;18.96;100.00;99907.78;5133662;27;20071;-80
2023/06/11 03:05:41;;;;;;;14.52;10.43;;;;;;;18.91;100.00;99900.22;5132931;27;20099;-81
2023/06/11 03:08:06;;;;;;;17.13;10.70;;;;;;;18.84;100.00;99899.34;5131023;27;20090;-81
2023/06/11 03:10:32;;;;;;;12.77;10.48;;;;;;;18.89;100.00;99913.16;5133185;27;20731;-81
2023/06/11 03:12:57;;;;;;;15.32;10.50;;;;;;;18.88;100.00;99900.63;5132723;27;20031;-81
2023/06/11 03:15:22;;;;;;;15.05;10.52;;;;;;;18.84;100.00;99899.34;5132780;27;20019;-81
2023/06/11 03:17:48;;;;;;;14.88;10.63;;;;;;;18.85;100.00;99903.72;5132486;27;20023;-81
2023/06/11 03:20:13;;;;;;;13.07;10.27;;;;;;;18.88;100.00;99913.34;5132854;27;20030;-81
2023/06/11 03:22:39;;;;;;;15.30;9.82;;;;;;;18.85;100.00;99905.59;5132869;27;20058;-81
2023/06/11 03:25:05;;;;;;;16.90;10.05;;;;;;;18.85;100.00;99909.16;5133278;27;20054;-82
2023/06/11 03:27:31;;;;;;;15.52;9.77;;;;;;;18.84;100.00;99910.22;5131820;27;20023;-82
2023/06/11 03:29:56;;;;;;;11.98;9.88;;;;;;;18.82;100.00;99914.13;5131449;27;20045;-82
2023/06/11 03:32:22;;;;;;;11.63;9.75;;;;;;;18.76;100.00;99906.81;5133149;27;20367;-81
2023/06/11 03:34:47;;;;;;;10.43;8.45;;;;;;;18.79;100.00;99909.09;5132954;27;20031;-82
2023/06/11 03:37:13;;;;;;;11.35;8.43;;;;;;;18.82;100.00;99923.16;5132067;27;20363;-82
2023/06/11 03:39:38;;;;;;;15.90;9.43;;;;;;;18.82;100.00;99919.56;5130524;27;20062;-82
2023/06/11 03:42:04;;;;;;;11.35;9.25;;;;;;;18.84;100.00;99922.94;5132415;27;20053;-82
2023/06/11 03:44:29;;;;;;;12.52;9.30;;;;;;;18.84;100.00;99928.38;5132692;27;20035;-83
2023/06/11 03:46:55;;;;;;;12.85;8.43;;;;;;;18.76;100.00;99909.53;5130881;27;20023;-81
2023/06/11 03:49:20;;;;;;;9.52;8.05;;;;;;;18.88;100.00;99919.66;5132119;27;20030;-81
2023/06/11 03:51:46;;;;;;;11.82;8.13;;;;;;;18.89;100.00;99932.19;5128211;27;20699;-68
2023/06/11 03:54:11;;;;;;;13.43;8.63;;;;;;;18.85;100.00;99920.03;5130796;27;20027;-68
2023/06/11 03:56:37;;;;;;;15.15;8.68;;;;;;;18.90;100.00;99919.44;5130568;27;20027;-68
2023/06/11 03:59:02;;;;;;;10.82;7.97;;;;;;;18.89;100.00;99917.78;5130513;27;20034;-68
2023/06/11 04:01:27;;;;;;;14.32;8.50;;;;;;;18.88;100.00;99925.06;5130217;27;20076;-69
2023/06/11 04:03:53;;;;;;;11.73;8.10;;;;;;;18.88;100.00;99921.50;5130309;27;20084;-68
2023/06/11 04:06:19;;;;;;;10.38;8.10;;;;;;;18.80;100.00;99910.81;5130145;27;20043;-69
2023/06/11 04:08:44;;;;;;;8.88;7.55;;;;;;;18.93;100.00;99928.03;5129779;27;20051;-69
2023/06/11 04:11:10;;;;;;;12.35;8.07;;;;;;;18.82;100.00;99911.41;5128805;27;20443;-68
2023/06/11 04:13:35;;;;;;;11.82;8.52;;;;;;;18.88;100.00;99933.22;5129991;27;20035;-69
2023/06/11 04:16:01;;;;;;;8.52;7.72;;;;;;;18.84;100.00;99920.22;5129906;27;20085;-68
2023/06/11 04:18:27;;;;;;;11.00;8.55;;;;;;;18.87;100.00;99926.13;5129828;27;20447;-68
2023/06/11 04:20:52;;;;;;;12.38;7.95;;;;;;;18.80;100.00;99921.66;5129176;27;20035;-70
2023/06/11 04:23:18;;;;;;;9.15;7.50;;;;;;;18.84;100.00;99912.06;5128268;27;20057;-68
2023/06/11 04:25:43;;;;;;;13.70;7.80;;;;;;;18.80;100.00;99908.91;5129731;27;20031;-68
2023/06/11 04:28:10;;;;;;;10.32;7.28;;;;;;;18.66;100.00;99896.25;5129559;27;20043;-68
2023/06/11 04:30:36;;;;;;;11.15;6.90;;;;;;;18.88;100.00;99925.06;5127460;27;20116;-68
2023/06/11 04:33:03;;;;;;;9.07;7.70;;;;;;;18.86;100.00;99923.59;5128624;27;20114;-69
2023/06/11 04:35:29;;;;;;;7.80;6.93;;;;;;;18.90;100.00;99928.44;5130256;27;20574;-69
2023/06/11 04:37:55;;;;;;;11.05;6.85;;;;;;;18.89;100.00;99924.03;5129714;27;20062;-70
2023/06/11 04:40:23;;;;;;;8.50;7.20;;;;;;;18.95;100.00;99930.53;5128766;27;20084;-71
2023/06/11 04:42:49;;;;;;;8.63;7.47;;;;;;;18.98;100.00;99931.00;5129049;27;20475;-69
2023/06/11 04:45:18;;;;;;;8.93;7.05;;;;;;;18.96;100.00;99924.91;5129185;27;20030;-71
2023/06/11 04:47:45;;;;;;;10.13;7.20;;;;;;;19.04;100.00;99926.66;5127880;27;20049;-71
2023/06/11 04:50:11;;;;;;;8.00;7.20;;;;;;;19.07;100.00;99934.41;5129583;27;20023;-71
2023/06/11 04:52:38;;;;;;;8.85;7.03;;;;;;;18.97;100.00;99909.47;5127461;27;20118;-72
2023/06/11 04:55:05;;;;;;;9.13;7.00;;;;;;;19.02;100.00;99923.31;5129767;27;20026;-72
2023/06/11 04:57:34;;;;;;;9.25;7.20;;;;;;;19.14;100.00;99933.44;5126644;27;20538;-70
2023/06/11 05:00:00;;;;;;;8.88;6.82;;;;;;;19.11;100.00;99922.94;5129525;27;20364;-71
2023/06/11 05:02:26;;;;;;;11.52;7.50;;;;;;;19.19;100.00;99938.28;5128742;27;20031;-71
2023/06/11 05:04:53;;;;;;;11.40;7.18;;;;;;;19.19;100.00;99935.56;5129768;27;20463;-72
2023/06/11 05:07:19;;;;;;;7.88;7.03;;;;;;;19.21;100.00;99937.03;5129478;27;20039;-71
2023/06/11 05:09:46;;;;;;;9.70;7.32;;;;;;;19.14;100.00;99922.56;5129576;27;20054;-71
2023/06/11 05:12:12;;;;;;;10.45;7.38;;;;;;;19.23;100.00;99936.81;5128971;27;20034;-71
2023/06/11 05:14:41;;;;;;;11.60;7.90;;;;;;;19.20;99.80;99934.50;5128854;27;20039;-71
2023/06/11 05:17:06;;;;;;;10.75;7.53;;;;;;;19.25;99.74;99935.56;5129550;27;20031;-71
2023/06/11 05:19:32;;;;;;;9.80;6.97;;;;;;;19.15;99.79;99926.94;5129446;27;20065;-71
2023/06/11 05:21:57;;;;;;;9.88;7.13;;;;;;;19.31;99.85;99942.16;5128011;27;20035;-80
2023/06/11 05:24:28;;;;;;;8.38;7.05;;;;;;;19.15;99.08;99921.50;5121451;28;20038;-81
2023/06/11 05:26:58;;;;;;;10.77;7.82;;;;;;;19.31;98.99;99944.88;5126192;27;20104;-80
2023/06/11 05:29:24;;;;;;;8.38;7.25;;;;;;;19.22;98.82;99924.28;5130827;27;20123;-81
2023/06/11 05:31:49;;;;;;;9.27;7.45;;;;;;;19.23;99.24;99924.09;5130747;27;20027;-81
2023/06/11 05:34:15;;;;;;;8.90;7.22;;;;;;;19.38;99.10;99951.19;5130128;28;20023;-82
2023/06/11 05:36:42;;;;;;;8.13;6.95;;;;;;;19.39;98.96;99950.13;5129256;27;20023;-82
2023/06/11 05:39:07;;;;;;;16.48;7.22;;;;;;;19.42;98.64;99952.47;5129777;27;20035;-80
2023/06/11 05:41:33;;;;;;;16.95;7.57;;;;;;;19.35;98.67;99944.25;5124811;27;20043;-81
2023/06/11 05:43:58;;;;;;;10.75;7.07;;;;;;;19.48;98.51;99957.09;5127759;28;20031;-81
2023/06/11 05:46:25;;;;;;;9.65;7.30;;;;;;;19.51;98.10;99959.44;5128237;27;20383;-82
2023/06/11 05:48:51;;;;;;;11.60;6.93;;;;;;;19.54;97.83;99961.75;5129137;28;20031;-81
2023/06/11 05:51:16;;;;;;;7.85;7.10;;;;;;;19.59;97.23;99971.00;5133913;27;20068;-81
2023/06/11 05:53:42;;;;;;;14.55;7.15;;;;;;;19.62;96.98;99977.91;5134158;27;20491;-81
2023/06/11 05:56:07;;;;;;;10.10;7.68;;;;;;;19.64;96.14;99968.47;5134212;27;20075;-82
2023/06/11 05:58:33;;;;;;;11.13;6.95;;;;;;;19.67;95.61;99970.00;5131967;27;20417;-68
2023/06/11 06:01:03;;;;;;;9.93;7.50;;;;;;;19.70;95.67;99967.69;5130695;27;20076;-68
2023/06/11 06:03:33;;;;;;;9.90;6.93;;;;;;;19.79;95.34;99961.03;5131393;27;20075;-69
2023/06/11 06:06:01;;;;;;;9.32;6.88;;;;;;;19.85;95.52;99981.16;5132033;27;20127;-68
2023/06/11 06:08:28;;;;;;;11.57;7.40;;;;;;;19.79;94.59;99961.03;5129302;27;20035;-69
2023/06/11 06:10:54;;;;;;;11.00;7.55;;;;;;;19.81;94.18;99958.97;5128879;27;20479;-69
2023/06/11 06:13:21;;;;;;;11.45;7.88;;;;;;;19.83;94.02;99950.59;5128093;27;20069;-69
2023/06/11 06:15:46;;;;;;;7.65;6.85;;;;;;;20.00;94.29;99958.19;5131827;27;20035;-69
2023/06/11 06:18:11;;;;;;;11.25;7.28;;;;;;;19.97;93.90;99950.44;5131023;27;20095;-69
2023/06/11 06:20:40;;;;;;;7.93;7.07;;;;;;;20.16;92.83;99978.81;5134461;27;20060;-69
2023/06/11 06:23:05;;;;;;;10.60;7.15;;;;;;;20.16;92.70;99963.31;5131981;27;20030;-70
2023/06/11 06:25:31;;;;;;;9.80;7.15;;;;;;;20.24;92.69;99958.72;5131810;27;20042;-68
2023/06/11 06:27:57;;;;;;;14.32;7.68;;;;;;;20.32;91.17;99973.00;5131091;27;20027;-69
2023/06/11 06:30:22;;;;;;;11.02;6.90;;;;;;;20.41;91.71;99970.94;5131997;27;20019;-68
2023/06/11 06:32:48;;;;;;;10.43;7.45;;;;;;;20.50;91.82;99972.41;5130068;27;20375;-69
2023/06/11 06:35:13;;;;;;;9.10;6.75;;;;;;;20.55;91.02;99980.78;5131034;27;20110;-69
2023/06/11 06:37:39;;;;;;;8.38;6.47;;;;;;;20.59;89.62;99973.88;5131469;27;20475;-69
2023/06/11 06:40:05;;;;;;;8.38;6.32;;;;;;;20.65;89.30;99971.19;5127223;27;20091;-69
2023/06/11 06:42:30;;;;;;;7.90;6.85;;;;;;;20.76;88.97;99973.28;5128053;27;20553;-69
2023/06/11 06:44:56;;;;;;;12.40;6.68;;;;;;;20.83;88.31;99982.28;5131039;27;20031;-70
2023/06/11 06:47:22;;;;;;;9.15;6.50;;;;;;;20.92;88.25;99977.50;5131612;27;20023;-70
2023/06/11 06:49:47;;;;;;;8.43;7.05;;;;;;;20.88;87.67;99970.75;5131583;27;20651;-69
2023/06/11 06:52:13;;;;;;;9.23;7.07;;;;;;;21.05;87.00;99997.44;5131573;27;20031;-70
2023/06/11 06:54:38;;;;;;;10.15;6.78;;;;;;;21.13;86.04;100010.03;5130947;27;20031;-69
2023/06/11 06:57:07;;;;;;;8.35;7.15;;;;;;;21.12;85.44;99978.38;5130171;27;20028;-69
2023/06/11 06:59:33;;;;;;;17.10;7.38;;;;;;;21.26;85.27;99994.53;5129743;27;20027;-68
2023/06/11 07:01:58;;;;;;;7.80;7.00;;;;;;;21.35;84.55;99995.13;5130107;27;20080;-70
2023/06/11 07:04:24;;;;;;;7.10;6.38;;;;;;;21.40;84.94;99987.13;5129993;27;20646;-69
2023/06/11 07:06:50;;;;;;;11.25;6.97;;;;;;;21.39;83.83;99983.59;5129341;27;20142;-69
2023/06/11 07:09:15;;;;;;;7.82;6.53;;;;;;;21.54;83.74;99986.91;5131489;27;20069;-70
2023/06/11 07:11:41;;;;;;;9.02;7.05;;;;;;;21.66;83.73;99985.19;5130241;27;20030;-81
2023/06/11 07:14:06;;;;;;;8.13;7.18;;;;;;;21.79;84.17;99996.13;5132593;27;20412;-81
2023/06/11 07:16:32;;;;;;;11.13;6.75;;;;;;;21.83;83.39;99986.44;5132723;27;20084;-82
2023/06/11 07:18:58;;;;;;;7.18;6.45;;;;;;;21.86;82.39;100002.41;5132702;27;20058;-81
2023/06/11 07:21:23;;;;;;;7.35;6.32;;;;;;;21.86;82.29;99996.94;5133157;27;20110;-80
2023/06/11 07:23:49;;;;;;;6.47;5.88;;;;;;;22.01;82.69;99986.59;5131459;27;20037;-81
2023/06/11 07:26:15;;;;;;;9.55;6.53;;;;;;;22.17;82.89;99996.19;5132130;27;20395;-82
2023/06/11 07:28:41;;;;;;;7.10;6.22;;;;;;;22.29;80.50;99991.72;5132885;27;20106;-81
2023/06/11 07:31:07;;;;;;;7.18;6.40;;;;;;;22.37;80.65;99985.19;5129658;27;20031;-69
2023/06/11 07:33:33;;;;;;;10.70;6.72;;;;;;;22.35;79.27;99980.75;5129880;27;20030;-80
2023/06/11 07:35:59;;;;;;;9.90;7.22;;;;;;;22.31;78.89;99971.31;5129548;27;20436;-79
2023/06/11 07:38:25;;;;;;;14.73;7.25;;;;;;;22.39;78.82;99981.16;5132477;27;20015;-81
2023/06/11 07:40:50;;;;;;;8.88;6.78;;;;;;;22.42;78.20;99988.06;5132287;27;20039;-81
2023/06/11 07:43:16;;;;;;;10.68;6.78;;;;;;;22.41;77.65;99989.13;5133301;27;20087;-81
2023/06/11 07:45:43;;;;;;;11.15;6.60;;;;;;;22.47;77.85;100000.03;5131869;27;20027;-80
2023/06/11 07:48:09;;;;;;;9.25;6.32;;;;;;;22.51;77.69;99995.84;5130691;27;20427;-80
2023/06/11 07:50:34;;;;;;;7.47;6.20;;;;;;;22.54;77.24;100003.63;5132369;27;20114;-81
2023/06/11 07:53:00;;;;;;;10.35;6.45;;;;;;;22.57;77.08;99994.13;5132165;27;20231;-80
2023/06/11 07:55:26;;;;;;;10.95;6.70;;;;;;;22.60;77.00;99993.69;5132199;27;20063;-80
2023/06/11 07:57:51;;;;;;;12.27;6.43;;;;;;;22.66;77.19;99998.28;5131521;27;20031;-80
2023/06/11 08:00:17;;;;;;;7.63;5.93;;;;;;;22.70;77.11;99992.13;5129813;27;20042;-70
2023/06/11 08:02:44;;;;;;;8.80;6.25;;;;;;;22.78;76.86;100005.56;5128961;27;20666;-70
2023/06/11 08:05:11;;;;;;;9.73;6.32;;;;;;;22.63;76.32;99972.19;5129024;27;20023;-70
2023/06/11 08:07:37;;;;;;;8.85;6.32;;;;;;;22.81;76.52;99999.66;5130329;27;20134;-70
2023/06/11 08:10:03;;;;;;;9.27;6.65;;;;;;;22.80;77.14;99981.56;5130232;27;20042;-70
2023/06/11 08:12:29;;;;;;;9.95;5.78;;;;;;;22.85;75.40;99983.59;5130789;27;20039;-70
2023/06/11 08:14:54;;;;;;;7.70;6.50;;;;;;;23.01;75.96;99992.13;5128041;27;20494;-69
2023/06/11 08:17:19;;;;;;;12.07;7.00;;;;;;;22.99;74.82;99996.97;5130122;27;20023;-70
2023/06/11 08:19:45;;;;;;;9.82;6.10;;;;;;;22.93;75.41;99983.34;5127926;27;20038;-70
2023/06/11 08:22:10;;;;;;;6.88;5.60;;;;;;;22.98;75.37;99989.81;5128976;27;20027;-70
2023/06/11 08:24:36;;;;;;;6.50;5.80;;;;;;;22.96;74.74;99975.53;5130458;27;20027;-70
2023/06/11 08:27:02;;;;;;;7.22;5.82;;;;;;;22.92;72.90;99990.72;5128527;27;20054;-69
2023/06/11 08:29:28;;;;;;;6.88;5.95;;;;;;;22.90;73.51;99990.13;5129402;27;20656;-71
2023/06/11 08:31:53;;;;;;;10.63;6.28;;;;;;;22.88;72.64;99999.56;5128403;27;20046;-71
2023/06/11 08:34:18;;;;;;;7.72;6.22;;;;;;;22.94;72.68;99995.97;5128824;27;20019;-70
2023/06/11 08:36:44;;;;;;;6.68;5.95;;;;;;;22.91;72.69;99996.41;5129480;27;20023;-71
2023/06/11 08:39:09;;;;;;;7.88;5.72;;;;;;;22.99;73.36;99983.28;5129534;27;20543;-70
2023/06/11 08:41:36;;;;;;;9.60;6.60;;;;;;;23.09;73.08;99985.53;5128250;27;20115;-70
2023/06/11 08:44:02;;;;;;;7.10;5.72;;;;;;;23.14;72.83;99981.06;5129825;27;20027;-70
2023/06/11 08:46:33;;;;;;;6.93;6.22;;;;;;;23.20;73.42;100002.06;5128104;27;20074;-69
2023/06/11 08:49:05;;;;;;;7.50;6.45;;;;;;;23.15;73.76;99985.47;5129645;27;20035;-71
2023/06/11 08:51:36;;;;;;;8.90;5.70;;;;;;;23.25;73.63;99991.31;5127672;27;20031;-71
2023/06/11 08:54:05;;;;;;;7.28;6.57;;;;;;;23.22;73.91;99979.94;5127080;27;20047;-72
2023/06/11 08:56:31;;;;;;;8.82;6.10;;;;;;;23.21;73.09;99998.25;5129299;27;20023;-69
2023/06/11 08:59:00;;;;;;;6.35;5.75;;;;;;;23.27;71.79;100008.34;5128055;27;20509;-71
2023/06/11 09:01:25;;;;;;;6.95;5.95;;;;;;;23.21;71.99;99986.50;5128257;27;20047;-71
2023/06/11 09:03:51;;;;;;;7.28;6.13;;;;;;;23.27;72.05;99994.66;5127156;27;20034;-70
2023/06/11 09:06:17;;;;;;;7.13;6.35;;;;;;;23.32;72.71;99989.38;5128789;27;20126;-70
2023/06/11 09:08:43;;;;;;;8.80;6.32;;;;;;;23.37;72.75;99992.25;5129151;27;20122;-70
2023/06/11 09:11:08;;;;;;;10.25;6.00;;;;;;;23.48;72.46;99991.53;5129291;27;20110;-70
2023/06/11 09:13:34;;;;;;;7.60;6.32;;;;;;;23.52;73.65;99989.16;5124753;27;20072;-70
2023/06/11 09:15:59;;;;;;;8.63;6.07;;;;;;;23.38;72.17;99971.19;5127854;27;20039;-68
2023/06/11 09:18:26;;;;;;;11.65;5.57;;;;;;;23.47;70.99;99998.06;5128017;28;20019;-70
2023/06/11 09:20:53;;;;;;;7.15;5.60;;;;;;;23.43;70.02;99983.16;5129111;27;20023;-70
2023/06/11 09:23:39;;;;;;;7.22;5.70;;;;;;;23.58;70.44;99996.47;5128981;27;20031;-69
2023/06/11 09:26:05;;;;;;;9.45;5.43;;;;;;;23.56;70.73;99972.06;5128607;27;20046;-71
2023/06/11 09:28:35;;;;;;;10.32;6.60;;;;;;;23.66;70.38;99994.28;5132582;27;20034;-70
2023/06/11 09:31:04;;;;;;;8.05;5.85;;;;;;;23.61;70.02;99980.44;5132465;27;20358;-71
2023/06/11 09:33:32;;;;;;;6.18;5.57;;;;;;;23.76;69.98;99991.03;5132088;27;20015;-70
2023/06/11 09:36:00;;;;;;;8.23;5.90;;;;;;;23.76;70.55;99986.38;5130228;27;20038;-70
2023/06/11 09:38:26;;;;;;;9.80;5.60;;;;;;;23.77;71.72;99988.03;5131133;27;20031;-69
2023/06/11 09:40:54;;;;;;;7.70;5.75;;;;;;;23.82;71.82;100003.78;5132117;27;20027;-70
2023/06/11 09:43:21;;;;;;;8.75;5.32;;;;;;;23.85;70.14;99990.50;5135103;27;20539;-78
2023/06/11 09:45:55;;;;;;;7.00;6.03;;;;;;;23.83;70.40;99995.34;5130197;27;20027;-78
2023/06/11 09:48:24;;;;;;;8.95;6.07;;;;;;;23.91;71.42;99992.31;5132089;27;20406;-78
2023/06/11 09:50:52;;;;;;;8.68;5.78;;;;;;;23.85;71.39;99973.19;5132847;27;20150;-79
2023/06/11 09:53:19;;;;;;;7.40;6.38;;;;;;;23.90;70.13;99979.66;5133249;27;20470;-77
2023/06/11 09:55:50;;;;;;;9.02;6.03;;;;;;;24.02;70.26;99999.78;5131748;27;20027;-78
2023/06/11 09:58:21;;;;;;;8.10;5.68;;;;;;;23.97;70.44;99991.44;5131351;27;20102;-76
2023/06/11 10:00:52;;;;;;;8.68;5.93;;;;;;;23.93;69.16;99995.66;5131699;27;20037;-79
2023/06/11 10:03:19;;;;;;;10.68;6.63;;;;;;;24.00;69.22;99993.72;5133939;27;20524;-76
2023/06/11 10:05:45;;;;;;;7.72;5.57;;;;;;;23.96;69.23;99994.41;5128015;27;20122;-77
2023/06/11 10:08:20;;;;;;;6.60;5.57;;;;;;;24.03;68.72;99995.16;5133149;27;20767;-78
2023/06/11 10:10:50;;;;;;;7.63;5.22;;;;;;;23.99;68.76;99967.38;5132548;27;20571;-78
2023/06/11 10:13:29;;;;;;;9.05;6.40;;;;;;;24.11;69.58;99976.50;5131727;27;20031;-77
2023/06/11 10:16:02;;;;;;;6.22;4.90;;;;;;;24.15;69.00;99977.72;5130772;27;20035;-78
2023/06/11 10:18:30;;;;;;;5.53;5.03;;;;;;;24.23;68.51;99982.03;5131946;27;20019;-79
2023/06/11 10:21:01;;;;;;;6.72;5.18;;;;;;;24.25;68.43;99986.22;5131323;27;20054;-79
2023/06/11 10:23:36;;;;;;;8.45;5.63;;;;;;;24.27;68.02;99986.84;5131726;27;20379;-79
2023/06/11 10:26:01;;;;;;;10.13;5.88;;;;;;;24.28;69.60;99979.47;5129424;27;20027;-78
2023/06/11 10:28:49;;;;;;;6.35;5.75;;;;;;;24.30;71.24;99988.28;5131297;27;20027;-80
2023/06/11 10:31:45;;;;;;;6.82;5.50;;;;;;;24.19;70.99;99970.69;5131972;27;20031;-81
2023/06/11 10:34:14;;;;;;;7.40;5.88;;;;;;;24.24;71.35;99973.59;5114799;27;20435;-78
2023/06/11 10:36:41;;;;;;;6.25;5.65;;;;;;;24.35;69.50;99978.28;5131247;27;20084;-78
2023/06/11 10:39:20;;;;;;;5.93;5.15;;;;;;;24.32;68.06;99969.69;5131149;27;20019;-79
2023/06/11 10:41:46;;;;;;;8.93;6.07;;;;;;;24.37;68.16;99980.78;5129740;27;20035;-78
2023/06/11 10:44:14;;;;;;;8.68;4.90;;;;;;;24.42;67.87;99975.47;5132920;27;20027;-78
2023/06/11 10:46:48;;;;;;;7.75;5.10;;;;;;;24.36;66.90;99966.25;5131837;27;20050;-79
2023/06/11 10:49:14;;;;;;;7.18;5.63;;;;;;;24.38;67.95;99975.06;5131375;27;20571;-77
2023/06/11 10:51:40;;;;;;;6.07;5.47;;;;;;;24.46;66.70;99971.19;5130679;27;20031;-78
2023/06/11 10:54:07;;;;;;;11.00;5.55;;;;;;;24.48;67.69;99974.53;5131273;27;20475;-78
2023/06/11 10:56:37;;;;;;;9.30;5.78;;;;;;;24.49;67.85;99973.44;5131842;27;20035;-79
2023/06/11 10:59:08;;;;;;;8.90;5.22;;;;;;;24.43;68.61;99972.50;5130389;27;20015;-79
2023/06/11 11:01:33;;;;;;;6.50;5.60;;;;;;;24.38;67.09;99960.56;5130800;27;20102;-77
2023/06/11 11:04:01;;;;;;;7.13;5.43;;;;;;;24.49;67.63;99981.69;5131040;27;20113;-78
2023/06/11 11:06:28;;;;;;;7.18;5.70;;;;;;;24.43;67.26;99968.91;5131095;27;20043;-78
2023/06/11 11:08:57;;;;;;;8.60;5.75;;;;;;;24.46;68.37;99976.66;5131532;27;20457;-79
2023/06/11 11:11:24;;;;;;;7.82;6.40;;;;;;;24.44;69.48;99973.34;5131712;27;20026;-79
2023/06/11 11:13:50;;;;;;;6.70;5.38;;;;;;;24.45;69.35;99975.00;5128691;27;20112;-79
2023/06/11 11:16:20;;;;;;;8.05;5.72;;;;;;;24.41;68.79;99960.09;5131969;27;20087;-77
2023/06/11 11:18:47;;;;;;;8.68;5.43;;;;;;;24.49;68.90;99965.22;5131060;27;20038;-79
2023/06/11 11:21:13;;;;;;;5.57;5.07;;;;;;;24.43;67.87;99953.28;5130466;27;20023;-78
2023/06/11 11:23:39;;;;;;;8.63;5.50;;;;;;;24.50;66.86;99964.16;5131882;27;20031;-79